Clipper Saga — LAFY6 — position and weather

sailwx.info

Track history (hours):
 
Tides and Currents Weather Stations Pressure Air Temp Water Temp Dewpoint Dewpoint Depression Visibility Wind Speed Wind Dir Waves Ship Positions

Clipper Saga

Last reported at 2014-Oct-24 03:24 UTC. Time now 2014-Oct-25 00:48 UTC.
Position N 55°44' E 020°40'.

Length 89 m; draft 5.9 m.

Type: Ship (hazmat cat C). MMSI: 246657008.

Date/timePositionNaut miles runAvg speedWind from/ knotsBaromVisibWave heightAir tempDewpointWater temp
2014-Oct-24 03:24N 55°44' E 020°40'20 4.0
2014-Oct-23 22:19N 55°46' E 020°04'11 9.9
2014-Oct-23 21:11N 55°46' E 019°44'14510.7
2014-Oct-23 07:33N 55°32' E 015°28'1110.5
2014-Oct-23 06:33N 55°29' E 015°10'1110.9
2014-Oct-23 05:33N 55°26' E 014°52'1010.5
2014-Oct-23 04:33N 55°21' E 014°36'1111.2
2014-Oct-23 03:33N 55°12' E 014°23'1111.3
2014-Oct-23 02:33N 55°03' E 014°11'1110.9
2014-Oct-23 01:33N 54°58' E 013°54'6218.5
2014-Oct-22 22:14N 54°33' E 012°17'3 3.5
2014-Oct-22 21:30N 54°30' E 012°16'3 2.8
2014-Oct-22 20:33N 54°28' E 012°14'2 2.4
2014-Oct-22 19:33N 54°30' E 012°15'10 9.9
2014-Oct-22 18:33N 54°25' E 012°01'4511.2
2014-Oct-22 14:33N 54°34' E 010°45'1111.1
2014-Oct-22 13:32N 54°31' E 010°26'1010.5
2014-Oct-22 12:33N 54°25' E 010°13'4 4.0
2014-Oct-22 11:33N 54°22' E 010°08'7 7.3
2014-Oct-22 10:33N 54°21' E 009°55'7 7.4
2014-Oct-22 09:33N 54°19' E 009°43'7 7.4
2014-Oct-22 08:33N 54°13' E 009°36'16 7.3
2014-Oct-22 06:19N 54°00' E 009°18'6 8.3
2014-Oct-22 05:33N 53°55' E 009°12'12 3.9
2014-Oct-22 02:33N 53°50' E 008°53'10 9.8
2014-Oct-22 01:33N 53°56' E 008°40'1010.3
2014-Oct-22 00:33N 53°59' E 008°23'1110.7
2014-Oct-21 23:33N 53°59' E 008°05'8 7.5
2014-Oct-21 22:33N 53°57' E 007°52'9 7.8
2014-Oct-21 21:27N 53°55' E 007°38'56 9.5
2014-Oct-21 15:33N 53°41' E 006°06'1211.9
2014-Oct-21 14:33N 53°38' E 005°47'1211.6
2014-Oct-21 13:33N 53°34' E 005°28'1211.5
2014-Oct-21 12:33N 53°31' E 005°10'1111.1
2014-Oct-21 11:33N 53°27' E 004°53'1010.3
2014-Oct-21 10:33N 53°20' E 004°39'3610.7
2014-Oct-21 07:10N 52°48' E 004°12'910.4
2014-Oct-21 06:20N 52°41' E 004°02'4711.1
2014-Oct-21 02:07N 52°01' E 003°25'712.2
2014-Oct-21 01:33N 51°54' E 003°22'1111.3
2014-Oct-21 00:33N 51°43' E 003°17'1010.2
2014-Oct-20 23:33N 51°34' E 003°25'1010.4
2014-Oct-20 22:33N 51°26' E 003°36'7 6.6
2014-Oct-20 21:33N 51°22' E 003°44'8 8.2
2014-Oct-20 20:33N 51°24' E 003°57'6 6.1
2014-Oct-20 19:33N 51°22' E 004°07'8 8.3
2014-Oct-20 18:34N 51°18' E 004°18'5 4.8
2014-Oct-20 17:31N 51°14' E 004°23'0 0.0
2014-Oct-20 16:31N 51°14' E 004°23'0 0.0
2014-Oct-20 15:33N 51°14' E 004°23'1 1.2
2014-Oct-20 14:33N 51°14' E 004°22'1 0.7
2014-Oct-20 13:21N 51°15' E 004°20'0 0.0
2014-Oct-20 12:33N 51°15' E 004°20'0 0.0
2014-Oct-20 11:30N 51°15' E 004°20'0 0.0
2014-Oct-20 10:33N 51°15' E 004°20'0 0.0
2014-Oct-20 08:33N 51°15' E 004°20'0 0.0
2014-Oct-20 07:33N 51°15' E 004°20'0 0.0
2014-Oct-20 06:21N 51°15' E 004°20'0 0.0
2014-Oct-20 05:24N 51°15' E 004°20'0 0.0
2014-Oct-20 04:30N 51°15' E 004°20'0 0.0
2014-Oct-20 03:18N 51°15' E 004°20'0 0.0
2014-Oct-20 02:18N 51°15' E 004°20'0 0.0
2014-Oct-20 01:30N 51°15' E 004°20'0 0.0
2014-Oct-20 00:24N 51°15' E 004°20'0 0.0
2014-Oct-19 23:30N 51°15' E 004°20'0 0.0
2014-Oct-19 22:30N 51°15' E 004°20'0 0.0
2014-Oct-19 21:33N 51°15' E 004°20'0 0.0
2014-Oct-19 20:33N 51°15' E 004°20'0 0.0
2014-Oct-19 19:30N 51°15' E 004°20'0 0.0
2014-Oct-19 17:24N 51°15' E 004°20'0 0.0
2014-Oct-19 16:24N 51°15' E 004°20'0 0.0
2014-Oct-19 15:30N 51°15' E 004°20'0 0.0
2014-Oct-19 14:26N 51°15' E 004°20'0 0.0
2014-Oct-19 13:18N 51°15' E 004°20'0 0.0
2014-Oct-19 12:27N 51°15' E 004°20'0 0.0
2014-Oct-19 11:27N 51°15' E 004°20'0 0.0
2014-Oct-19 10:21N 51°15' E 004°20'0 0.0
2014-Oct-19 09:32N 51°15' E 004°20'0 0.0
2014-Oct-19 08:30N 51°15' E 004°20'0 0.0
2014-Oct-19 07:33N 51°15' E 004°20'0 0.0
2014-Oct-19 06:33N 51°15' E 004°20'3 2.7
2014-Oct-19 05:34N 51°17' E 004°19'9 8.5
2014-Oct-19 04:33N 51°22' E 004°08'7 7.0
2014-Oct-19 03:33N 51°24' E 003°57'9 8.8
2014-Oct-19 02:33N 51°23' E 003°43'8 7.6
2014-Oct-19 01:33N 51°25' E 003°32'1211.2
2014-Oct-19 00:32N 51°24' E 003°13'1212.5
2014-Oct-18 23:34N 51°22' E 002°54'1110.5
2014-Oct-18 22:33N 51°22' E 002°37'5 4.9
2014-Oct-18 21:33N 51°22' E 002°29'6 6.1
2014-Oct-18 20:33N 51°19' E 002°21'6 6.3
2014-Oct-18 19:34N 51°16' E 002°12'7 6.6
2014-Oct-18 18:34N 51°13' E 002°03'7 7.4
2014-Oct-18 17:34N 51°09' E 001°53'8 8.5
2014-Oct-18 16:34N 51°03' E 001°42'9 8.7
2014-Oct-18 15:33N 50°57' E 001°33'8 8.3
2014-Oct-18 14:34N 50°50' E 001°27'8 8.1
2014-Oct-18 13:33N 50°42' E 001°22'83 7.2
2014-Oct-18 02:06N 49°45' W 000°11'510.0
2014-Oct-18 01:33N 49°39' W 000°11'1110.8
2014-Oct-18 00:33N 49°29' W 000°05'1212.4
2014-Oct-17 23:33N 49°26' E 000°14'1312.3
2014-Oct-17 22:31N 49°27' E 000°33'1 0.1
2014-Oct-17 01:20N 49°28' E 000°32'811.0
2014-Oct-17 00:34N 49°26' E 000°19'1211.7
2014-Oct-16 23:33N 49°27' E 000°01'4 4.1
2014-Oct-16 22:29N 49°28' W 000°05'0 0.0
2014-Oct-16 21:29N 49°28' W 000°05'0 0.1
2014-Oct-16 20:32N 49°28' W 000°05'0 0.0
2014-Oct-16 19:17N 49°28' W 000°05'0 0.0
2014-Oct-16 18:29N 49°28' W 000°05'0 0.0
2014-Oct-16 17:34N 49°28' W 000°05'5 5.2
2014-Oct-16 16:34N 49°32' W 000°11'6010.0
2014-Oct-16 10:33N 50°31' E 000°11'1211.7
2014-Oct-16 09:33N 50°34' E 000°29'1211.7
2014-Oct-16 08:34N 50°39' E 000°45'2411.1
2014-Oct-16 06:22N 50°53' E 001°17'810.1
2014-Oct-16 05:33N 50°60' E 001°24'10 9.9
2014-Oct-16 04:34N 51°06' E 001°35'1010.4
2014-Oct-16 03:34N 51°14' E 001°47'1111.1
2014-Oct-16 02:34N 51°23' E 001°57'1010.2
2014-Oct-16 01:34N 51°21' E 002°13'1312.5
2014-Oct-16 00:33N 51°23' E 002°33'1111.2
2014-Oct-15 23:34N 51°22' E 002°51'1312.8
2014-Oct-15 22:33N 51°24' E 003°11'1414.0
2014-Oct-15 21:33N 51°26' E 003°34'1111.3
2014-Oct-15 20:33N 51°21' E 003°50'8 8.3
2014-Oct-15 19:33N 51°23' E 004°03'9 9.1
2014-Oct-15 18:33N 51°21' E 004°17'0 0.0
2014-Oct-15 17:33N 51°21' E 004°17'0 0.0
2014-Oct-15 16:33N 51°21' E 004°17'4 4.0
2014-Oct-15 15:33N 51°17' E 004°20'0 0.0
2014-Oct-14 13:31N 51°17' E 004°20'0 0.0
2014-Oct-14 12:33N 51°17' E 004°20'0 0.4
2014-Oct-14 11:33N 51°18' E 004°20'4 3.7
2014-Oct-14 10:34N 51°21' E 004°17'3 2.9
2014-Oct-14 09:33N 51°22' E 004°13'7 7.1
2014-Oct-14 08:34N 51°24' E 004°02'6 6.3
2014-Oct-14 07:33N 51°21' E 003°53'9 9.4
2014-Oct-14 06:33N 51°26' E 003°40'9 9.2
2014-Oct-14 05:33N 51°25' E 003°26'1312.6
2014-Oct-14 04:33N 51°24' E 003°05'1413.5
2014-Oct-14 03:33N 51°22' E 002°44'  
Track history (hours):
 
Tides and Currents Weather Stations Pressure Air Temp Water Temp Dewpoint Dewpoint Depression Visibility Wind Speed Wind Dir Waves Ship Positions

Clipper Saga

Last reported at 2014-Oct-24 03:24 UTC. Time now 2014-Oct-25 00:48 UTC.
Position N 55°44' E 020°40'.

Length 89 m; draft 5.9 m.

Type: Ship (hazmat cat C). MMSI: 246657008.

Date/timePositionNaut miles runAvg speedWind from/ knotsBaromVisibWave heightAir tempDewpointWater temp
2014-Oct-24 03:24N 55°44' E 020°40'20 4.0
2014-Oct-23 22:19N 55°46' E 020°04'11 9.9
2014-Oct-23 21:11N 55°46' E 019°44'14510.7
2014-Oct-23 07:33N 55°32' E 015°28'1110.5
2014-Oct-23 06:33N 55°29' E 015°10'1110.9
2014-Oct-23 05:33N 55°26' E 014°52'1010.5
2014-Oct-23 04:33N 55°21' E 014°36'1111.2
2014-Oct-23 03:33N 55°12' E 014°23'1111.3
2014-Oct-23 02:33N 55°03' E 014°11'1110.9
2014-Oct-23 01:33N 54°58' E 013°54'6218.5
2014-Oct-22 22:14N 54°33' E 012°17'3 3.5
2014-Oct-22 21:30N 54°30' E 012°16'3 2.8
2014-Oct-22 20:33N 54°28' E 012°14'2 2.4
2014-Oct-22 19:33N 54°30' E 012°15'10 9.9
2014-Oct-22 18:33N 54°25' E 012°01'4511.2
2014-Oct-22 14:33N 54°34' E 010°45'1111.1
2014-Oct-22 13:32N 54°31' E 010°26'1010.5
2014-Oct-22 12:33N 54°25' E 010°13'4 4.0
2014-Oct-22 11:33N 54°22' E 010°08'7 7.3
2014-Oct-22 10:33N 54°21' E 009°55'7 7.4
2014-Oct-22 09:33N 54°19' E 009°43'7 7.4
2014-Oct-22 08:33N 54°13' E 009°36'16 7.3
2014-Oct-22 06:19N 54°00' E 009°18'6 8.3
2014-Oct-22 05:33N 53°55' E 009°12'12 3.9
2014-Oct-22 02:33N 53°50' E 008°53'10 9.8
2014-Oct-22 01:33N 53°56' E 008°40'1010.3
2014-Oct-22 00:33N 53°59' E 008°23'1110.7
2014-Oct-21 23:33N 53°59' E 008°05'8 7.5
2014-Oct-21 22:33N 53°57' E 007°52'9 7.8
2014-Oct-21 21:27N 53°55' E 007°38'56 9.5
2014-Oct-21 15:33N 53°41' E 006°06'1211.9
2014-Oct-21 14:33N 53°38' E 005°47'1211.6
2014-Oct-21 13:33N 53°34' E 005°28'1211.5
2014-Oct-21 12:33N 53°31' E 005°10'1111.1
2014-Oct-21 11:33N 53°27' E 004°53'1010.3
2014-Oct-21 10:33N 53°20' E 004°39'3610.7
2014-Oct-21 07:10N 52°48' E 004°12'910.4
2014-Oct-21 06:20N 52°41' E 004°02'4711.1
2014-Oct-21 02:07N 52°01' E 003°25'712.2
2014-Oct-21 01:33N 51°54' E 003°22'1111.3
2014-Oct-21 00:33N 51°43' E 003°17'1010.2
2014-Oct-20 23:33N 51°34' E 003°25'1010.4
2014-Oct-20 22:33N 51°26' E 003°36'7 6.6
2014-Oct-20 21:33N 51°22' E 003°44'8 8.2
2014-Oct-20 20:33N 51°24' E 003°57'6 6.1
2014-Oct-20 19:33N 51°22' E 004°07'8 8.3
2014-Oct-20 18:34N 51°18' E 004°18'5 4.8
2014-Oct-20 17:31N 51°14' E 004°23'0 0.0
2014-Oct-20 16:31N 51°14' E 004°23'0 0.0
2014-Oct-20 15:33N 51°14' E 004°23'1 1.2
2014-Oct-20 14:33N 51°14' E 004°22'1 0.7
2014-Oct-20 13:21N 51°15' E 004°20'0 0.0
2014-Oct-20 12:33N 51°15' E 004°20'0 0.0
2014-Oct-20 11:30N 51°15' E 004°20'0 0.0
2014-Oct-20 10:33N 51°15' E 004°20'0 0.0
2014-Oct-20 08:33N 51°15' E 004°20'0 0.0
2014-Oct-20 07:33N 51°15' E 004°20'0 0.0
2014-Oct-20 06:21N 51°15' E 004°20'0 0.0
2014-Oct-20 05:24N 51°15' E 004°20'0 0.0
2014-Oct-20 04:30N 51°15' E 004°20'0 0.0
2014-Oct-20 03:18N 51°15' E 004°20'0 0.0
2014-Oct-20 02:18N 51°15' E 004°20'0 0.0
2014-Oct-20 01:30N 51°15' E 004°20'0 0.0
2014-Oct-20 00:24N 51°15' E 004°20'0 0.0
2014-Oct-19 23:30N 51°15' E 004°20'0 0.0
2014-Oct-19 22:30N 51°15' E 004°20'0 0.0
2014-Oct-19 21:33N 51°15' E 004°20'0 0.0
2014-Oct-19 20:33N 51°15' E 004°20'0 0.0
2014-Oct-19 19:30N 51°15' E 004°20'0 0.0
2014-Oct-19 17:24N 51°15' E 004°20'0 0.0
2014-Oct-19 16:24N 51°15' E 004°20'0 0.0
2014-Oct-19 15:30N 51°15' E 004°20'0 0.0
2014-Oct-19 14:26N 51°15' E 004°20'0 0.0
2014-Oct-19 13:18N 51°15' E 004°20'0 0.0
2014-Oct-19 12:27N 51°15' E 004°20'0 0.0
2014-Oct-19 11:27N 51°15' E 004°20'0 0.0
2014-Oct-19 10:21N 51°15' E 004°20'0 0.0
2014-Oct-19 09:32N 51°15' E 004°20'0 0.0
2014-Oct-19 08:30N 51°15' E 004°20'0 0.0
2014-Oct-19 07:33N 51°15' E 004°20'0 0.0
2014-Oct-19 06:33N 51°15' E 004°20'3 2.7
2014-Oct-19 05:34N 51°17' E 004°19'9 8.5
2014-Oct-19 04:33N 51°22' E 004°08'7 7.0
2014-Oct-19 03:33N 51°24' E 003°57'9 8.8
2014-Oct-19 02:33N 51°23' E 003°43'8 7.6
2014-Oct-19 01:33N 51°25' E 003°32'1211.2
2014-Oct-19 00:32N 51°24' E 003°13'1212.5
2014-Oct-18 23:34N 51°22' E 002°54'1110.5
2014-Oct-18 22:33N 51°22' E 002°37'5 4.9
2014-Oct-18 21:33N 51°22' E 002°29'6 6.1
2014-Oct-18 20:33N 51°19' E 002°21'6 6.3
2014-Oct-18 19:34N 51°16' E 002°12'7 6.6
2014-Oct-18 18:34N 51°13' E 002°03'7 7.4
2014-Oct-18 17:34N 51°09' E 001°53'8 8.5
2014-Oct-18 16:34N 51°03' E 001°42'9 8.7
2014-Oct-18 15:33N 50°57' E 001°33'8 8.3
2014-Oct-18 14:34N 50°50' E 001°27'8 8.1
2014-Oct-18 13:33N 50°42' E 001°22'83 7.2
2014-Oct-18 02:06N 49°45' W 000°11'510.0
2014-Oct-18 01:33N 49°39' W 000°11'1110.8
2014-Oct-18 00:33N 49°29' W 000°05'1212.4
2014-Oct-17 23:33N 49°26' E 000°14'1312.3
2014-Oct-17 22:31N 49°27' E 000°33'1 0.1
2014-Oct-17 01:20N 49°28' E 000°32'811.0
2014-Oct-17 00:34N 49°26' E 000°19'1211.7
2014-Oct-16 23:33N 49°27' E 000°01'4 4.1
2014-Oct-16 22:29N 49°28' W 000°05'0 0.0
2014-Oct-16 21:29N 49°28' W 000°05'0 0.1
2014-Oct-16 20:32N 49°28' W 000°05'0 0.0
2014-Oct-16 19:17N 49°28' W 000°05'0 0.0
2014-Oct-16 18:29N 49°28' W 000°05'0 0.0
2014-Oct-16 17:34N 49°28' W 000°05'5 5.2
2014-Oct-16 16:34N 49°32' W 000°11'6010.0
2014-Oct-16 10:33N 50°31' E 000°11'1211.7
2014-Oct-16 09:33N 50°34' E 000°29'1211.7
2014-Oct-16 08:34N 50°39' E 000°45'2411.1
2014-Oct-16 06:22N 50°53' E 001°17'810.1
2014-Oct-16 05:33N 50°60' E 001°24'10 9.9
2014-Oct-16 04:34N 51°06' E 001°35'1010.4
2014-Oct-16 03:34N 51°14' E 001°47'1111.1
2014-Oct-16 02:34N 51°23' E 001°57'1010.2
2014-Oct-16 01:34N 51°21' E 002°13'1312.5
2014-Oct-16 00:33N 51°23' E 002°33'1111.2
2014-Oct-15 23:34N 51°22' E 002°51'1312.8
2014-Oct-15 22:33N 51°24' E 003°11'1414.0
2014-Oct-15 21:33N 51°26' E 003°34'1111.3
2014-Oct-15 20:33N 51°21' E 003°50'8 8.3
2014-Oct-15 19:33N 51°23' E 004°03'9 9.1
2014-Oct-15 18:33N 51°21' E 004°17'0 0.0
2014-Oct-15 17:33N 51°21' E 004°17'0 0.0
2014-Oct-15 16:33N 51°21' E 004°17'4 4.0
2014-Oct-15 15:33N 51°17' E 004°20'0 0.0
2014-Oct-14 13:31N 51°17' E 004°20'0 0.0
2014-Oct-14 12:33N 51°17' E 004°20'0 0.4
2014-Oct-14 11:33N 51°18' E 004°20'4 3.7
2014-Oct-14 10:34N 51°21' E 004°17'3 2.9
2014-Oct-14 09:33N 51°22' E 004°13'7 7.1
2014-Oct-14 08:34N 51°24' E 004°02'6 6.3
2014-Oct-14 07:33N 51°21' E 003°53'9 9.4
2014-Oct-14 06:33N 51°26' E 003°40'9 9.2
2014-Oct-14 05:33N 51°25' E 003°26'1312.6
2014-Oct-14 04:33N 51°24' E 003°05'1413.5
2014-Oct-14 03:33N 51°22' E 002°44'  

Dump ship's entire track history